Briggsville, Wisconsin
Current Conditions -  °F | °C
As of 9:10 PM on Monday 26 Jan 2015 (Local Time) from KDLL Reporting Station
Light Snow Light Snow  
Wind Chill: 23°   Ceiling: 1200
Heat Index: 23°   Visibility: 2.5mi
Dew Point: 21°   Wind: 0mph
Humidity: 93%   Direction: NA
Pressure: 29.87"   Gusts: NA
Location:  43.65°N, 89.59°W
Report Text: KDLL 270310Z AUTO 00000KT 2 1/2SM -SN OVC012 M05/M06 A2987 RMK AO2 T10501060
Loading
Personal Weather Stations






























Interactive Weather Map New forecast layout! Learn more

10-Day Weather Forecast

Advertisements
Track Severe Weather on mobile